createdAt,value
2019-01-10T00:01:32.144Z,7.70
2019-01-10T00:04:01.046Z,6.83
2019-01-10T00:06:30.030Z,7.10
2019-01-10T00:08:59.010Z,7.90
2019-01-10T00:11:39.193Z,6.90
2019-01-10T00:14:08.183Z,8.97
2019-01-10T00:16:37.551Z,6.87
2019-01-10T00:19:06.445Z,8.48
2019-01-10T00:21:36.144Z,7.80
2019-01-10T00:24:05.099Z,8.05
2019-01-10T00:26:34.414Z,7.50
2019-01-10T00:29:03.329Z,7.43
2019-01-10T00:31:32.304Z,7.10
2019-01-10T00:34:01.232Z,6.03
2019-01-10T00:36:30.124Z,7.80
2019-01-10T00:38:59.021Z,8.00
2019-01-10T00:41:28.698Z,7.90
2019-01-10T00:43:57.569Z,8.30
2019-01-10T00:46:26.495Z,8.30
2019-01-10T00:48:55.437Z,6.55
2019-01-10T00:51:25.593Z,8.60
2019-01-10T00:57:16.959Z,7.27
2019-01-10T00:59:45.893Z,8.03
2019-01-10T01:02:15.154Z,8.50
2019-01-10T01:04:44.049Z,7.87
2019-01-10T01:07:13.096Z,8.40
2019-01-10T01:09:42.317Z,9.00
2019-01-10T01:12:12.302Z,7.28
2019-01-10T01:14:41.518Z,8.40
2019-01-10T01:17:10.717Z,8.63
2019-01-10T01:19:40.426Z,7.60
2019-01-10T01:28:52.529Z,9.03
2019-01-10T01:31:21.764Z,8.27
2019-01-10T01:33:51.074Z,8.03
2019-01-10T01:36:20.069Z,8.47
2019-01-10T01:38:48.952Z,8.90
2019-01-10T01:41:17.856Z,8.33
2019-01-10T01:43:46.790Z,8.07
2019-01-10T01:46:16.052Z,8.53
2019-01-10T01:48:44.962Z,8.20
2019-01-10T01:51:13.913Z,10.10
2019-01-10T01:53:42.806Z,9.20
2019-01-10T01:56:11.702Z,9.73
2019-01-10T01:58:40.619Z,9.33
2019-01-10T02:01:09.502Z,9.70
2019-01-10T02:03:38.401Z,8.93
2019-01-10T02:06:07.712Z,9.40
2019-01-10T02:08:39.940Z,8.60
2019-01-10T02:11:08.840Z,8.70
2019-01-10T02:13:37.775Z,9.17
2019-01-10T02:16:07.370Z,9.23
2019-01-10T02:18:36.623Z,10.00
2019-01-10T02:21:05.645Z,10.77
2019-01-10T02:23:34.523Z,10.53
2019-01-10T02:26:03.501Z,10.03
2019-01-10T02:28:32.835Z,11.10
2019-01-10T02:31:01.730Z,9.97
2019-01-10T02:33:31.292Z,10.97
2019-01-10T02:36:36.144Z,10.50
2019-01-10T02:39:06.989Z,10.30
2019-01-10T02:41:36.283Z,9.33
2019-01-10T02:44:05.189Z,9.60
2019-01-10T02:46:34.086Z,10.63
2019-01-10T02:49:03.293Z,9.30
2019-01-10T02:51:32.210Z,9.60
2019-01-10T02:54:01.568Z,10.90
2019-01-10T02:56:30.448Z,11.37
2019-01-10T02:58:59.372Z,10.70
2019-01-10T03:01:28.823Z,11.00
2019-01-10T03:03:57.698Z,10.50
2019-01-10T03:09:38.779Z,10.70
2019-01-10T03:18:36.433Z,12.43
2019-01-10T03:21:05.616Z,13.13
2019-01-10T03:23:34.537Z,12.60
2019-01-10T03:26:03.478Z,12.00
2019-01-10T03:28:32.367Z,11.43
2019-01-10T03:31:01.242Z,12.37
2019-01-10T03:33:30.165Z,12.50
2019-01-10T03:36:18.064Z,11.60
2019-01-10T03:38:46.986Z,12.27
2019-01-10T03:41:15.966Z,12.20
2019-01-10T03:43:47.544Z,11.87
2019-01-10T03:46:15.725Z,11.30
2019-01-10T03:48:45.062Z,11.40
2019-01-10T03:51:14.001Z,11.27
2019-01-10T03:53:42.918Z,11.70
2019-01-10T03:56:11.794Z,11.67
2019-01-10T03:58:40.745Z,12.03
2019-01-10T04:01:09.630Z,11.93
2019-01-10T04:03:38.543Z,11.30
2019-01-10T04:06:07.451Z,11.50
2019-01-10T04:08:36.339Z,11.43
2019-01-10T04:11:05.548Z,11.50
2019-01-10T04:13:34.436Z,11.50
2019-01-10T04:16:03.369Z,10.83
2019-01-10T04:18:32.260Z,11.00
2019-01-10T04:21:04.310Z,10.23
2019-01-10T04:23:33.201Z,10.93
2019-01-10T04:26:02.873Z,11.77
2019-01-10T04:28:31.916Z,11.90
2019-01-10T04:31:01.043Z,11.97
2019-01-10T04:33:30.415Z,10.80
2019-01-10T04:36:00.017Z,10.93
2019-01-10T04:38:29.276Z,10.90
2019-01-10T04:40:58.190Z,11.80
2019-01-10T04:43:30.303Z,11.73
2019-01-10T04:45:59.252Z,11.77
2019-01-10T04:48:28.134Z,11.80
2019-01-10T04:50:57.426Z,12.17
2019-01-10T04:53:26.768Z,11.47
2019-01-10T04:55:55.810Z,11.40
2019-01-10T04:58:24.739Z,11.80
2019-01-10T05:00:53.870Z,11.30
2019-01-10T05:03:22.798Z,13.47
2019-01-10T05:05:51.701Z,11.20
2019-01-10T05:08:20.585Z,12.67
2019-01-10T05:10:49.917Z,11.60
2019-01-10T05:13:18.817Z,12.60
2019-01-10T05:15:47.758Z,11.47
2019-01-10T05:18:16.656Z,11.47
2019-01-10T05:20:45.945Z,13.00
2019-01-10T05:23:15.277Z,11.57
2019-01-10T05:25:44.592Z,13.30
2019-01-10T05:28:13.531Z,13.30
2019-01-10T05:30:42.881Z,11.75
2019-01-10T05:33:18.595Z,12.60
2019-01-10T05:35:47.545Z,13.93
2019-01-10T05:38:16.500Z,13.07
2019-01-10T05:40:45.777Z,13.13
2019-01-10T05:43:14.790Z,12.47
2019-01-10T05:45:58.304Z,12.20
2019-01-10T05:48:30.775Z,12.33
2019-01-10T05:50:59.737Z,12.90
2019-01-10T05:53:28.681Z,11.97
2019-01-10T05:55:57.613Z,12.50
2019-01-10T05:58:26.988Z,13.40
2019-01-10T06:00:55.914Z,11.60
2019-01-10T06:03:25.509Z,12.00
2019-01-10T06:05:54.459Z,12.00
2019-01-10T06:08:23.432Z,11.13
2019-01-10T06:10:52.747Z,14.03
2019-01-10T06:13:29.801Z,12.10
2019-01-10T06:15:59.116Z,14.40
2019-01-10T06:18:28.079Z,12.10
2019-01-10T06:20:59.169Z,12.33
2019-01-10T06:23:28.122Z,12.70
2019-01-10T06:25:57.697Z,12.88
2019-01-10T06:28:26.626Z,13.40
2019-01-10T06:30:55.636Z,11.10
2019-01-10T06:33:24.561Z,11.70
2019-01-10T06:35:53.556Z,12.47
2019-01-10T06:38:22.963Z,12.20
2019-01-10T06:40:52.339Z,12.50
2019-01-10T06:43:21.653Z,13.40
2019-01-10T06:45:50.927Z,13.10
2019-01-10T06:48:19.949Z,12.35
2019-01-10T06:50:48.876Z,12.30
2019-01-10T06:53:17.837Z,12.20
2019-01-10T06:55:46.777Z,13.18
2019-01-10T06:58:15.748Z,11.93
2019-01-10T07:00:44.762Z,13.67
2019-01-10T07:03:14.189Z,12.80
2019-01-10T07:05:43.125Z,14.87
2019-01-10T07:08:12.028Z,12.83
2019-01-10T07:10:40.935Z,12.57
2019-01-10T07:13:09.785Z,14.30
2019-01-10T07:15:39.314Z,12.57
2019-01-10T07:18:08.852Z,13.00
2019-01-10T07:20:38.342Z,14.33
2019-01-10T07:23:07.602Z,12.17
2019-01-10T07:25:36.540Z,13.35
2019-01-10T07:28:23.795Z,13.67
2019-01-10T07:30:53.472Z,13.57
2019-01-10T07:33:22.383Z,14.20
2019-01-10T07:36:00.860Z,13.67
2019-01-10T07:38:29.762Z,15.50
2019-01-10T07:40:58.714Z,14.60
2019-01-10T07:43:27.992Z,14.53
2019-01-10T07:46:00.365Z,15.28
2019-01-10T07:48:29.635Z,13.73
2019-01-10T07:50:58.573Z,14.10
2019-01-10T07:53:27.517Z,14.27
2019-01-10T07:55:56.452Z,14.20
2019-01-10T07:58:25.374Z,15.23
2019-01-10T08:04:05.167Z,14.00
2019-01-10T08:06:34.473Z,13.53
2019-01-10T08:09:04.236Z,13.67
2019-01-10T08:11:33.097Z,15.03
2019-01-10T08:14:02.032Z,12.57
2019-01-10T08:16:30.906Z,12.63
2019-01-10T08:19:00.163Z,13.63
2019-01-10T08:21:29.096Z,12.93
2019-01-10T08:23:58.063Z,12.77
2019-01-10T08:26:26.931Z,12.87
2019-01-10T08:28:56.236Z,14.00
2019-01-10T08:31:25.583Z,12.73
2019-01-10T08:33:54.823Z,13.20
2019-01-10T08:36:32.110Z,11.87
2019-01-10T08:38:54.659Z,12.37
2019-01-10T08:41:23.599Z,13.80
2019-01-10T08:43:52.495Z,13.77
2019-01-10T08:46:21.938Z,13.03
2019-01-10T08:48:50.878Z,12.80
2019-01-10T08:51:20.159Z,13.43
2019-01-10T08:53:53.797Z,12.60
2019-01-10T08:56:19.952Z,13.07
2019-01-10T08:58:48.885Z,12.50
2019-01-10T09:01:18.567Z,12.00
2019-01-10T09:03:49.323Z,14.03
2019-01-10T09:06:18.250Z,12.70
2019-01-10T09:08:47.149Z,12.37
2019-01-10T09:11:16.048Z,12.70
2019-01-10T09:13:44.974Z,11.83
2019-01-10T09:16:13.963Z,11.80
2019-01-10T09:18:42.937Z,12.47
2019-01-10T09:21:11.906Z,11.87
2019-01-10T09:23:41.135Z,12.67
2019-01-10T09:26:10.043Z,11.93
2019-01-10T09:28:38.858Z,12.20
2019-01-10T09:31:08.298Z,12.47
2019-01-10T09:33:39.577Z,13.67
2019-01-10T09:36:07.742Z,12.30
2019-01-10T09:38:37.039Z,12.73
2019-01-10T09:41:05.973Z,13.10
2019-01-10T09:43:35.265Z,12.00
2019-01-10T09:46:04.286Z,12.00
2019-01-10T09:48:33.232Z,12.33
2019-01-10T09:51:03.171Z,11.17
2019-01-10T09:53:32.470Z,12.13
2019-01-10T09:56:01.770Z,11.97
2019-01-10T09:58:30.726Z,12.40
2019-01-10T10:00:59.589Z,12.93
2019-01-10T10:03:28.495Z,11.50
2019-01-10T10:05:57.816Z,11.60
2019-01-10T10:08:26.689Z,12.10
2019-01-10T10:10:55.630Z,9.70
2019-01-10T10:13:25.437Z,11.70
2019-01-10T10:15:54.698Z,12.47
2019-01-10T10:18:23.614Z,11.70
2019-01-10T10:21:04.226Z,12.83
2019-01-10T10:23:33.139Z,11.57
2019-01-10T10:26:02.464Z,12.40
2019-01-10T10:28:31.388Z,10.93
2019-01-10T10:31:00.390Z,12.97
2019-01-10T10:33:30.038Z,11.17
2019-01-10T10:35:58.923Z,11.17
2019-01-10T10:38:27.850Z,12.80
2019-01-10T10:40:56.780Z,11.50
2019-01-10T10:43:26.135Z,11.60
2019-01-10T10:46:01.495Z,11.87
2019-01-10T10:48:27.798Z,11.37
2019-01-10T10:50:57.117Z,11.50
2019-01-10T10:53:26.085Z,11.57
2019-01-10T10:55:55.389Z,11.80
2019-01-10T10:58:24.697Z,11.57
2019-01-10T11:00:53.683Z,11.50
2019-01-10T11:03:22.763Z,11.13
2019-01-10T11:05:51.645Z,10.70
2019-01-10T11:08:20.980Z,11.97
2019-01-10T11:10:50.321Z,11.10
2019-01-10T11:13:19.571Z,13.20
2019-01-10T11:15:48.759Z,12.33
2019-01-10T11:18:17.981Z,13.87
2019-01-10T11:20:46.837Z,10.53
2019-01-10T11:23:15.742Z,10.20
2019-01-10T11:25:44.652Z,10.27
2019-01-10T11:28:13.552Z,11.00
2019-01-10T11:30:42.819Z,10.67
2019-01-10T11:33:12.126Z,10.33
2019-01-10T11:35:41.038Z,12.30
2019-01-10T11:38:10.513Z,14.70
2019-01-10T11:40:40.239Z,13.10
2019-01-10T11:43:11.676Z,11.30
2019-01-10T11:45:40.586Z,11.07
2019-01-10T11:48:09.869Z,11.03
2019-01-10T11:50:39.167Z,10.80
2019-01-10T11:53:08.120Z,11.30
2019-01-10T11:55:37.358Z,10.03
2019-01-10T11:58:06.338Z,10.03
2019-01-10T12:00:35.314Z,9.13
2019-01-10T12:03:05.563Z,10.00
2019-01-10T12:05:35.513Z,10.30
2019-01-10T12:08:04.553Z,9.13
2019-01-10T12:10:33.929Z,10.93
2019-01-10T12:13:03.477Z,12.60
2019-01-10T12:15:46.548Z,11.77
2019-01-10T12:18:15.414Z,16.50
2019-01-10T12:20:44.700Z,12.37
2019-01-10T12:23:13.660Z,10.27
2019-01-10T12:25:42.932Z,11.13
2019-01-10T12:28:11.904Z,9.67
2019-01-10T12:30:41.788Z,10.90
2019-01-10T12:33:10.685Z,9.50
2019-01-10T12:35:39.569Z,9.70
2019-01-10T12:38:27.873Z,10.53
2019-01-10T12:40:56.725Z,9.63
2019-01-10T12:43:44.373Z,9.90
2019-01-10T12:46:13.694Z,8.77
2019-01-10T12:48:42.937Z,8.20
2019-01-10T12:51:11.940Z,8.93
2019-01-10T12:53:46.364Z,8.30
2019-01-10T12:56:18.424Z,8.60
2019-01-10T12:58:47.108Z,9.40
2019-01-10T13:01:16.029Z,8.73
2019-01-10T13:03:44.904Z,9.30
2019-01-10T13:06:13.856Z,8.27
2019-01-10T13:08:42.744Z,8.20
2019-01-10T13:11:11.634Z,8.90
2019-01-10T13:13:40.895Z,8.03
2019-01-10T13:16:09.804Z,8.00
2019-01-10T13:18:39.001Z,7.73
2019-01-10T13:21:26.410Z,8.80
2019-01-10T13:23:55.353Z,7.70
2019-01-10T13:26:24.641Z,9.40
2019-01-10T13:28:53.816Z,8.93
2019-01-10T13:31:29.258Z,8.67
2019-01-10T13:33:58.180Z,8.70
2019-01-10T13:36:27.099Z,8.73
2019-01-10T13:38:55.957Z,8.90
2019-01-10T13:41:25.208Z,8.60
2019-01-10T13:43:54.091Z,9.07
2019-01-10T13:46:23.590Z,9.07
2019-01-10T13:48:52.552Z,8.90
2019-01-10T13:51:22.442Z,10.07
2019-01-10T13:53:51.399Z,9.23
2019-01-10T13:56:20.270Z,9.17
2019-01-10T13:58:49.173Z,10.00
2019-01-10T14:01:18.115Z,10.30
2019-01-10T14:03:46.994Z,9.07
2019-01-10T14:06:24.117Z,9.60
2019-01-10T14:08:53.060Z,9.50
2019-01-10T14:11:22.068Z,8.80
2019-01-10T14:13:51.073Z,10.00
2019-01-10T14:16:19.986Z,9.50
2019-01-10T14:18:49.525Z,10.00
2019-01-10T14:21:18.529Z,9.57
2019-01-10T14:23:47.855Z,11.20
2019-01-10T14:26:16.824Z,8.20
2019-01-10T14:28:45.797Z,9.27
2019-01-10T14:31:14.732Z,8.80
2019-01-10T14:33:43.737Z,9.10
2019-01-10T14:36:12.597Z,8.50
2019-01-10T14:39:17.761Z,9.80
2019-01-10T14:41:47.158Z,8.07
2019-01-10T14:44:16.079Z,8.90
2019-01-10T14:46:45.372Z,9.97
2019-01-10T14:49:14.331Z,8.80
2019-01-10T14:51:43.245Z,8.97
2019-01-10T14:54:12.145Z,9.23
2019-01-10T14:56:41.092Z,9.40
2019-01-10T14:59:10.004Z,8.00
2019-01-10T15:01:38.952Z,9.10
2019-01-10T15:04:08.225Z,9.43
2019-01-10T15:06:37.148Z,8.93
2019-01-10T15:09:07.105Z,9.10
2019-01-10T15:11:36.390Z,9.40
2019-01-10T15:14:05.459Z,8.67
2019-01-10T15:16:34.826Z,8.07
2019-01-10T15:19:03.720Z,8.20
2019-01-10T15:21:32.607Z,7.83
2019-01-10T15:24:01.540Z,7.30
2019-01-10T15:26:30.451Z,8.27
2019-01-10T15:28:59.448Z,8.40
2019-01-10T15:31:47.265Z,6.17
2019-01-10T15:34:16.213Z,8.17
2019-01-10T15:36:45.195Z,7.00
2019-01-10T15:39:14.422Z,7.20
2019-01-10T15:41:43.370Z,8.43
2019-01-10T15:44:12.325Z,7.37
2019-01-10T15:46:41.241Z,7.00
2019-01-10T15:49:10.793Z,7.07
2019-01-10T15:51:39.727Z,7.43
2019-01-10T15:54:08.673Z,7.33
2019-01-10T15:56:38.415Z,7.53
2019-01-10T15:59:07.779Z,7.30
2019-01-10T16:01:36.687Z,6.70
2019-01-10T16:04:07.509Z,6.77
2019-01-10T16:06:36.385Z,7.37
2019-01-10T16:09:08.235Z,6.03
2019-01-10T16:11:37.152Z,7.57
2019-01-10T16:14:06.520Z,7.50
2019-01-10T16:16:35.533Z,6.87
2019-01-10T16:19:04.557Z,6.70
2019-01-10T16:21:33.865Z,7.33
2019-01-10T16:24:03.216Z,7.70
2019-01-10T16:26:32.259Z,7.63
2019-01-10T16:29:01.184Z,7.07
2019-01-10T16:31:30.365Z,7.77
2019-01-10T16:33:59.921Z,7.07
2019-01-10T16:36:29.325Z,6.80
2019-01-10T16:38:58.200Z,7.40
2019-01-10T16:41:29.465Z,6.50
2019-01-10T16:43:59.279Z,7.13
2019-01-10T16:46:28.195Z,8.10
2019-01-10T16:48:57.096Z,6.90
2019-01-10T16:51:26.347Z,7.43
2019-01-10T16:53:58.480Z,7.20
2019-01-10T16:56:27.388Z,7.27
2019-01-10T16:59:31.951Z,7.27
2019-01-10T17:02:01.196Z,7.57
2019-01-10T17:04:30.105Z,7.53
2019-01-10T17:06:59.011Z,7.20
2019-01-10T17:09:27.875Z,7.03
2019-01-10T17:11:56.791Z,7.17
2019-01-10T17:14:26.134Z,7.43
2019-01-10T17:16:55.090Z,7.23
2019-01-10T17:19:24.011Z,8.63
2019-01-10T17:21:53.276Z,6.97
2019-01-10T17:24:22.207Z,7.30
2019-01-10T17:26:51.291Z,7.50
2019-01-10T17:29:32.674Z,8.00
2019-01-10T17:32:01.612Z,11.23
2019-01-10T17:40:51.695Z,9.47
2019-01-10T17:43:41.757Z,8.33
2019-01-10T17:46:11.160Z,8.17
2019-01-10T17:48:40.046Z,9.07
2019-01-10T17:51:09.353Z,14.67
2019-01-10T17:53:38.650Z,9.40
2019-01-10T17:56:08.002Z,11.27
2019-01-10T17:58:36.968Z,9.73
2019-01-10T18:01:05.899Z,9.73
2019-01-10T18:03:40.147Z,10.03
2019-01-10T18:06:26.373Z,10.60
2019-01-10T18:08:55.317Z,11.30
2019-01-10T18:11:24.939Z,14.07
2019-01-10T18:13:54.351Z,12.50
2019-01-10T18:16:23.267Z,10.93
2019-01-10T18:18:52.192Z,11.47
2019-01-10T18:21:21.525Z,12.47
2019-01-10T18:23:50.829Z,12.20
2019-01-10T18:26:19.767Z,15.40
2019-01-10T18:28:50.217Z,12.40
2019-01-10T18:31:19.586Z,12.27
2019-01-10T18:33:48.499Z,10.37
2019-01-10T18:36:17.745Z,9.57
2019-01-10T18:38:46.671Z,10.53
2019-01-10T18:41:15.578Z,11.30
2019-01-10T18:43:44.493Z,10.93
2019-01-10T18:46:14.087Z,10.80
2019-01-10T18:48:42.991Z,9.17
2019-01-10T18:51:11.879Z,9.88
2019-01-10T18:53:41.188Z,10.07
2019-01-10T18:56:10.983Z,9.03
2019-01-10T18:58:39.860Z,8.73
2019-01-10T19:01:14.711Z,9.23
2019-01-10T19:03:43.988Z,7.83
2019-01-10T19:06:12.896Z,7.67
2019-01-10T19:08:42.166Z,7.70
2019-01-10T19:11:11.787Z,7.37
2019-01-10T19:13:40.652Z,7.77
2019-01-10T19:16:09.933Z,7.87
2019-01-10T19:18:38.827Z,9.40
2019-01-10T19:21:07.754Z,8.47
2019-01-10T19:23:36.683Z,9.50
2019-01-10T19:26:05.638Z,8.97
2019-01-10T19:28:34.611Z,9.30
2019-01-10T19:34:29.656Z,9.80
2019-01-10T19:36:58.523Z,8.30
2019-01-10T19:39:27.489Z,9.20
2019-01-10T19:41:56.347Z,8.47
2019-01-10T19:44:43.522Z,9.40
2019-01-10T19:47:39.625Z,9.10
2019-01-10T19:50:09.798Z,11.95
2019-01-10T19:52:45.393Z,13.00
2019-01-10T19:55:15.130Z,10.80
2019-01-10T19:57:46.164Z,12.60
2019-01-10T20:00:17.179Z,11.30
2019-01-10T20:02:46.544Z,10.30
2019-01-10T20:05:15.862Z,10.93
2019-01-10T20:07:44.809Z,10.83
2019-01-10T20:10:14.212Z,8.80
2019-01-10T20:12:43.150Z,8.20
2019-01-10T20:15:15.274Z,8.20
2019-01-10T20:17:46.801Z,8.10
2019-01-10T20:20:17.637Z,8.60
2019-01-10T20:22:46.955Z,7.60
2019-01-10T20:25:34.902Z,7.33
2019-01-10T20:28:04.797Z,8.13
2019-01-10T20:30:33.796Z,9.27
2019-01-10T20:33:26.641Z,9.00
2019-01-10T20:36:15.698Z,10.40
2019-01-10T20:38:59.797Z,11.40
2019-01-10T20:41:30.833Z,10.00
2019-01-10T20:44:00.082Z,12.20
2019-01-10T20:46:29.000Z,13.83
2019-01-10T20:49:10.153Z,14.57
2019-01-10T20:51:39.479Z,14.47
2019-01-10T20:54:09.054Z,12.80
2019-01-10T20:56:38.769Z,12.27
2019-01-10T20:59:07.680Z,11.53
2019-01-10T21:01:36.724Z,13.90
2019-01-10T21:04:05.672Z,12.70
2019-01-10T21:06:35.467Z,12.40
2019-01-10T21:09:12.858Z,10.67
2019-01-10T21:11:37.884Z,9.27
2019-01-10T21:14:07.227Z,10.30
2019-01-10T21:16:36.488Z,10.17
2019-01-10T21:19:05.372Z,10.30
2019-01-10T21:21:34.310Z,9.30
2019-01-10T21:24:03.192Z,10.40
2019-01-10T21:26:32.078Z,12.17
2019-01-10T21:29:02.337Z,9.30
2019-01-10T21:31:31.656Z,10.53
2019-01-10T21:34:01.018Z,11.33
2019-01-10T21:36:30.241Z,10.50
2019-01-10T21:38:59.143Z,10.70
2019-01-10T21:41:28.023Z,10.80
2019-01-10T21:43:56.942Z,9.30
2019-01-10T21:46:25.832Z,8.38
2019-01-10T21:48:55.222Z,8.83
2019-01-10T21:51:24.137Z,8.33
2019-01-10T21:53:53.075Z,8.47
2019-01-10T21:56:22.502Z,8.30
2019-01-10T21:58:51.836Z,9.10
2019-01-10T22:01:20.754Z,8.90
2019-01-10T22:03:49.616Z,9.77
2019-01-10T22:06:27.886Z,9.53
2019-01-10T22:08:56.795Z,8.30
2019-01-10T22:11:25.748Z,9.70
2019-01-10T22:13:54.637Z,9.00
2019-01-10T22:16:23.566Z,9.57
2019-01-10T22:18:52.466Z,8.73
2019-01-10T22:21:28.492Z,10.03
2019-01-10T22:27:07.474Z,14.43
2019-01-10T22:29:36.831Z,15.40
2019-01-10T22:32:05.765Z,14.00
2019-01-10T22:34:35.062Z,13.47
2019-01-10T22:37:04.013Z,11.67
2019-01-10T22:39:32.925Z,10.00
2019-01-10T22:42:01.853Z,12.03
2019-01-10T22:44:31.260Z,10.97
2019-01-10T22:47:01.239Z,10.00
2019-01-10T22:49:30.138Z,10.10
2019-01-10T22:51:59.090Z,10.27
2019-01-10T22:54:28.407Z,12.33
2019-01-10T22:56:57.312Z,10.93
2019-01-10T22:59:26.286Z,11.20
2019-01-10T23:01:57.891Z,9.67
2019-01-10T23:04:34.806Z,10.30
2019-01-10T23:07:03.817Z,9.70
2019-01-10T23:09:32.728Z,9.67
2019-01-10T23:12:02.700Z,9.90
2019-01-10T23:14:31.593Z,10.37
2019-01-10T23:17:01.316Z,9.93
2019-01-10T23:19:30.586Z,10.68
2019-01-10T23:22:09.148Z,11.15
2019-01-10T23:24:38.009Z,10.55
2019-01-10T23:27:07.292Z,11.00
2019-01-10T23:29:36.211Z,10.27
2019-01-10T23:35:37.002Z,10.15
2019-01-10T23:44:34.814Z,11.88
2019-01-10T23:50:22.059Z,10.18
2019-01-10T23:52:51.002Z,12.58
2019-01-10T23:55:19.885Z,11.15
2019-01-10T23:57:49.217Z,12.58
